createdAt,value
2022-08-22T00:01:40.243Z,23.46
2022-08-22T00:04:41.599Z,23.43
2022-08-22T00:07:52.912Z,23.41
2022-08-22T00:10:33.542Z,23.38
2022-08-22T00:13:09.122Z,23.34
2022-08-22T00:15:49.388Z,23.32
2022-08-22T00:18:42.248Z,23.33
2022-08-22T00:21:18.581Z,23.31
2022-08-22T00:24:14.752Z,23.32
2022-08-22T00:27:13.480Z,23.34
2022-08-22T00:29:57.273Z,23.33
2022-08-22T00:32:43.643Z,23.33
2022-08-22T00:35:22.006Z,23.32
2022-08-22T00:38:02.581Z,23.32
2022-08-22T00:41:04.480Z,23.30
2022-08-22T00:43:54.791Z,23.28
2022-08-22T00:46:38.495Z,23.26
2022-08-22T00:49:37.763Z,23.29
2022-08-22T00:52:18.242Z,23.29
2022-08-22T00:55:20.857Z,23.31
2022-08-22T00:57:55.322Z,23.28
2022-08-22T01:00:34.326Z,23.29
2022-08-22T01:03:32.250Z,23.22
2022-08-22T01:06:12.866Z,23.15
2022-08-22T01:08:59.297Z,23.10
2022-08-22T01:12:13.812Z,23.08
2022-08-22T01:14:56.237Z,23.09
2022-08-22T01:17:44.173Z,23.10
2022-08-22T01:20:27.942Z,23.09
2022-08-22T01:23:40.541Z,23.09
2022-08-22T01:27:05.989Z,23.09
2022-08-22T01:29:49.414Z,23.08
2022-08-22T01:32:39.613Z,23.09
2022-08-22T01:35:36.206Z,23.08
2022-08-22T01:38:20.147Z,23.05
2022-08-22T01:40:53.801Z,23.04
2022-08-22T01:44:00.258Z,23.04
2022-08-22T01:46:43.859Z,23.03
2022-08-22T01:49:33.759Z,23.04
2022-08-22T01:52:14.632Z,23.05
2022-08-22T01:54:56.065Z,23.03
2022-08-22T01:57:28.105Z,23.03
2022-08-22T02:00:08.824Z,23.01
2022-08-22T02:02:53.588Z,22.99
2022-08-22T02:05:31.729Z,22.96
2022-08-22T02:08:17.512Z,22.95
2022-08-22T02:11:12.953Z,22.96
2022-08-22T02:13:46.348Z,22.95
2022-08-22T02:16:33.743Z,22.94
2022-08-22T02:19:23.438Z,22.91
2022-08-22T02:22:24.172Z,22.90
2022-08-22T02:25:17.999Z,22.88
2022-08-22T02:27:58.831Z,22.84
2022-08-22T02:30:51.245Z,22.83
2022-08-22T02:33:32.566Z,22.82
2022-08-22T02:36:15.658Z,22.83
2022-08-22T02:39:05.729Z,22.84
2022-08-22T02:41:59.946Z,22.86
2022-08-22T02:44:35.719Z,22.84
2022-08-22T02:47:14.964Z,22.82
2022-08-22T02:49:59.126Z,22.81
2022-08-22T02:53:00.211Z,22.79
2022-08-22T02:55:54.491Z,22.77
2022-08-22T02:58:36.772Z,22.74
2022-08-22T03:01:31.668Z,22.73
2022-08-22T03:04:31.327Z,22.72
2022-08-22T03:07:25.900Z,22.71
2022-08-22T03:10:23.903Z,22.69
2022-08-22T03:13:08.032Z,22.68
2022-08-22T03:15:40.012Z,22.70
2022-08-22T03:18:48.867Z,22.73
2022-08-22T03:21:45.567Z,22.74
2022-08-22T03:24:26.208Z,22.77
2022-08-22T03:27:03.596Z,22.73
2022-08-22T03:29:44.140Z,22.70
2022-08-22T03:32:20.414Z,22.68
2022-08-22T03:35:03.679Z,22.66
2022-08-22T03:37:40.489Z,22.64
2022-08-22T03:40:41.840Z,22.62
2022-08-22T03:43:38.560Z,22.61
2022-08-22T03:46:22.190Z,22.58
2022-08-22T03:49:33.280Z,22.57
2022-08-22T03:52:28.642Z,22.55
2022-08-22T03:55:12.605Z,22.56
2022-08-22T03:58:27.598Z,22.55
2022-08-22T04:01:39.202Z,22.54
2022-08-22T04:04:11.153Z,22.53
2022-08-22T04:06:45.736Z,22.51
2022-08-22T04:09:32.437Z,22.50
2022-08-22T04:12:34.527Z,22.50
2022-08-22T04:15:28.111Z,22.48
2022-08-22T04:18:18.593Z,22.50
2022-08-22T04:21:16.414Z,22.48
2022-08-22T04:23:50.873Z,22.47
2022-08-22T04:26:36.614Z,22.45
2022-08-22T04:29:19.851Z,22.44
2022-08-22T04:32:14.633Z,22.44
2022-08-22T04:34:57.783Z,22.42
2022-08-22T04:37:37.697Z,22.40
2022-08-22T04:40:13.417Z,22.38
2022-08-22T04:43:00.497Z,22.36
2022-08-22T04:45:43.610Z,22.37
2022-08-22T04:48:22.461Z,22.38
2022-08-22T04:51:16.985Z,22.39
2022-08-22T04:53:55.981Z,22.38
2022-08-22T04:56:43.333Z,22.39
2022-08-22T04:59:17.603Z,22.40
2022-08-22T05:01:56.255Z,22.41
2022-08-22T05:04:32.383Z,22.43
2022-08-22T05:07:17.565Z,22.44
2022-08-22T05:09:56.408Z,22.45
2022-08-22T05:12:33.717Z,22.49
2022-08-22T05:15:10.140Z,22.51
2022-08-22T05:17:43.625Z,22.51
2022-08-22T05:20:21.026Z,22.52
2022-08-22T05:22:58.358Z,22.54
2022-08-22T05:25:33.851Z,22.55
2022-08-22T05:28:31.363Z,22.56
2022-08-22T05:31:06.259Z,22.54
2022-08-22T05:33:40.464Z,22.53
2022-08-22T05:36:23.499Z,22.50
2022-08-22T05:39:05.876Z,22.53
2022-08-22T05:41:38.772Z,22.56
2022-08-22T05:44:23.064Z,22.60
2022-08-22T05:47:05.086Z,22.64
2022-08-22T05:49:59.572Z,22.67
2022-08-22T05:52:50.016Z,22.69
2022-08-22T05:55:30.630Z,22.70
2022-08-22T05:58:30.251Z,22.70
2022-08-22T06:01:22.163Z,22.70
2022-08-22T06:04:24.655Z,22.72
2022-08-22T06:07:01.733Z,22.76
2022-08-22T06:09:59.509Z,22.79
2022-08-22T06:12:55.908Z,22.80
2022-08-22T06:15:33.642Z,22.84
2022-08-22T06:18:13.511Z,22.88
2022-08-22T06:20:51.170Z,22.92
2022-08-22T06:23:46.741Z,23.00
2022-08-22T06:26:21.229Z,23.08
2022-08-22T06:28:55.855Z,23.15
2022-08-22T06:31:44.522Z,23.21
2022-08-22T06:34:30.121Z,23.24
2022-08-22T06:37:06.492Z,23.23
2022-08-22T06:39:42.262Z,23.24
2022-08-22T06:42:17.730Z,23.29
2022-08-22T06:44:54.495Z,23.28
2022-08-22T06:47:30.401Z,23.31
2022-08-22T06:50:07.131Z,23.33
2022-08-22T06:53:01.029Z,23.37
2022-08-22T06:55:34.480Z,23.38
2022-08-22T06:58:22.651Z,23.41
2022-08-22T07:01:05.642Z,23.43
2022-08-22T07:03:47.672Z,23.44
2022-08-22T07:06:29.793Z,23.43
2022-08-22T07:09:05.545Z,23.46
2022-08-22T07:11:41.182Z,23.48
2022-08-22T07:14:16.451Z,23.52
2022-08-22T07:16:55.326Z,23.54
2022-08-22T07:19:38.822Z,23.56
2022-08-22T07:22:21.797Z,23.58
2022-08-22T07:24:58.367Z,23.61
2022-08-22T07:27:44.033Z,23.65
2022-08-22T07:30:27.660Z,23.68
2022-08-22T07:33:25.232Z,23.74
2022-08-22T07:36:18.674Z,23.79
2022-08-22T07:39:04.135Z,23.86
2022-08-22T07:41:56.200Z,23.93
2022-08-22T07:44:38.480Z,23.98
2022-08-22T07:47:13.558Z,24.01
2022-08-22T07:50:08.412Z,24.08
2022-08-22T07:52:42.720Z,24.17
2022-08-22T07:55:23.813Z,24.25
2022-08-22T07:57:58.218Z,24.32
2022-08-22T08:00:31.612Z,24.41
2022-08-22T08:03:07.072Z,24.48
2022-08-22T08:05:42.385Z,24.48
2022-08-22T08:08:21.399Z,24.52
2022-08-22T08:10:56.315Z,24.52
2022-08-22T08:13:37.114Z,24.54
2022-08-22T08:16:19.728Z,24.56
2022-08-22T08:18:56.940Z,24.62
2022-08-22T08:21:37.667Z,24.70
2022-08-22T08:24:14.320Z,24.76
2022-08-22T08:27:11.373Z,24.80
2022-08-22T08:29:55.251Z,24.76
2022-08-22T08:32:32.262Z,24.73
2022-08-22T08:35:23.109Z,24.71
2022-08-22T08:38:04.455Z,24.70
2022-08-22T08:41:11.957Z,24.70
2022-08-22T08:44:04.776Z,24.73
2022-08-22T08:47:11.199Z,24.79
2022-08-22T08:50:22.152Z,24.86
2022-08-22T08:53:10.447Z,24.89
2022-08-22T08:55:48.001Z,24.90
2022-08-22T08:58:33.746Z,24.88
2022-08-22T09:01:16.565Z,24.88
2022-08-22T09:03:58.477Z,24.94
2022-08-22T09:07:09.420Z,25.01
2022-08-22T09:09:54.232Z,25.11
2022-08-22T09:13:12.276Z,25.18
2022-08-22T09:15:55.058Z,25.28
2022-08-22T09:19:02.918Z,25.32
2022-08-22T09:21:53.844Z,25.31
2022-08-22T09:24:52.377Z,25.32
2022-08-22T09:27:37.319Z,25.33
2022-08-22T09:30:28.872Z,25.34
2022-08-22T09:33:12.443Z,25.39
2022-08-22T09:36:05.070Z,25.40
2022-08-22T09:38:55.812Z,25.43
2022-08-22T09:42:02.778Z,25.54
2022-08-22T09:45:13.760Z,25.56
2022-08-22T09:48:02.225Z,25.55
2022-08-22T09:50:54.609Z,25.57
2022-08-22T09:53:53.120Z,25.64
2022-08-22T09:56:49.852Z,25.73
2022-08-22T09:59:58.133Z,25.82
2022-08-22T10:02:45.508Z,25.86
2022-08-22T10:05:43.820Z,25.88
2022-08-22T10:08:37.421Z,25.88
2022-08-22T10:11:19.551Z,25.85
2022-08-22T10:13:57.389Z,25.91
2022-08-22T10:16:40.532Z,25.99
2022-08-22T10:19:23.390Z,26.07
2022-08-22T10:22:30.149Z,26.09
2022-08-22T10:25:06.792Z,26.11
2022-08-22T10:27:52.092Z,26.12
2022-08-22T10:30:32.613Z,26.12
2022-08-22T10:33:17.995Z,26.13
2022-08-22T10:36:05.034Z,26.13
2022-08-22T10:39:02.051Z,26.14
2022-08-22T10:42:16.926Z,26.26
2022-08-22T10:45:03.999Z,26.31
2022-08-22T10:47:42.008Z,26.37
2022-08-22T10:50:33.642Z,26.42
2022-08-22T10:53:34.959Z,26.47
2022-08-22T10:56:27.581Z,26.50
2022-08-22T10:59:11.519Z,26.50
2022-08-22T11:02:09.535Z,26.48
2022-08-22T11:05:10.629Z,26.48
2022-08-22T11:08:04.357Z,26.47
2022-08-22T11:11:02.532Z,26.55
2022-08-22T11:13:57.106Z,26.64
2022-08-22T11:17:00.761Z,26.75
2022-08-22T11:19:44.817Z,26.97
2022-08-22T11:22:47.149Z,27.16
2022-08-22T11:25:42.499Z,27.42
2022-08-22T11:28:25.504Z,27.75
2022-08-22T11:31:31.684Z,28.07
2022-08-22T11:34:26.447Z,28.30
2022-08-22T11:37:20.483Z,28.48
2022-08-22T11:40:20.509Z,28.91
2022-08-22T11:43:11.953Z,29.56
2022-08-22T11:45:52.560Z,30.41
2022-08-22T11:49:06.489Z,31.31
2022-08-22T11:51:47.135Z,32.15
2022-08-22T11:54:30.952Z,32.98
2022-08-22T11:57:20.673Z,33.80
2022-08-22T12:00:01.644Z,34.61
2022-08-22T12:03:12.603Z,35.51
2022-08-22T12:06:25.780Z,36.41
2022-08-22T12:09:11.753Z,37.32
2022-08-22T12:11:50.265Z,38.03
2022-08-22T12:14:48.682Z,38.62
2022-08-22T12:18:01.383Z,39.19
2022-08-22T12:21:01.560Z,39.47
2022-08-22T12:23:49.178Z,39.76
2022-08-22T12:26:29.788Z,40.00
2022-08-22T12:29:39.677Z,40.51
2022-08-22T12:32:54.191Z,41.00
2022-08-22T12:35:38.224Z,41.41
2022-08-22T12:38:38.237Z,41.41
2022-08-22T12:41:34.736Z,40.55
2022-08-22T12:44:19.872Z,38.95
2022-08-22T12:46:57.835Z,38.17
2022-08-22T12:49:40.642Z,37.86
2022-08-22T12:52:23.032Z,37.57
2022-08-22T12:55:19.876Z,37.08
2022-08-22T12:58:07.449Z,36.37
2022-08-22T13:00:44.646Z,35.51
2022-08-22T13:03:33.091Z,34.67
2022-08-22T13:06:33.905Z,34.51
2022-08-22T13:09:09.983Z,34.93
2022-08-22T13:11:43.186Z,35.50
2022-08-22T13:14:25.919Z,35.80
2022-08-22T13:17:10.190Z,35.99
2022-08-22T13:20:11.452Z,36.76
2022-08-22T13:22:45.065Z,37.36
2022-08-22T13:25:26.045Z,37.71
2022-08-22T13:28:00.488Z,37.63
2022-08-22T13:30:37.500Z,36.97
2022-08-22T13:33:14.927Z,36.32
2022-08-22T13:35:53.656Z,35.66
2022-08-22T13:38:28.627Z,34.90
2022-08-22T13:41:02.384Z,34.40
2022-08-22T13:44:05.161Z,33.72
2022-08-22T13:46:52.821Z,33.31
2022-08-22T13:49:35.906Z,33.12
2022-08-22T13:52:31.958Z,32.78
2022-08-22T13:55:16.186Z,32.41
2022-08-22T13:57:52.137Z,32.05
2022-08-22T14:00:57.267Z,31.84
2022-08-22T14:03:52.017Z,31.52
2022-08-22T14:06:46.861Z,31.29
2022-08-22T14:09:44.561Z,31.12
2022-08-22T14:12:33.707Z,30.96
2022-08-22T14:15:26.516Z,30.76
2022-08-22T14:18:13.052Z,30.63
2022-08-22T14:20:46.137Z,30.61
2022-08-22T14:23:29.315Z,30.62
2022-08-22T14:26:02.171Z,31.01
2022-08-22T14:28:35.924Z,31.81
2022-08-22T14:31:13.755Z,32.34
2022-08-22T14:33:58.711Z,32.63
2022-08-22T14:36:47.461Z,32.81
2022-08-22T14:39:25.625Z,32.80
2022-08-22T14:42:10.092Z,32.56
2022-08-22T14:45:08.459Z,32.32
2022-08-22T14:47:55.025Z,32.14
2022-08-22T14:50:46.240Z,31.90
2022-08-22T14:53:19.370Z,31.78
2022-08-22T14:56:12.419Z,31.63
2022-08-22T14:58:56.107Z,31.40
2022-08-22T15:01:32.806Z,31.20
2022-08-22T15:04:08.685Z,31.13
2022-08-22T15:06:51.339Z,30.88
2022-08-22T15:09:40.495Z,30.63
2022-08-22T15:12:24.745Z,30.42
2022-08-22T15:14:59.576Z,30.23
2022-08-22T15:17:43.874Z,30.03
2022-08-22T15:20:28.743Z,29.83
2022-08-22T15:23:09.906Z,29.74
2022-08-22T15:25:46.935Z,29.66
2022-08-22T15:28:20.814Z,29.57
2022-08-22T15:31:08.067Z,29.45
2022-08-22T15:33:43.322Z,29.41
2022-08-22T15:36:26.922Z,29.35
2022-08-22T15:39:46.898Z,29.28
2022-08-22T15:42:26.344Z,29.23
2022-08-22T15:44:59.472Z,29.16
2022-08-22T15:47:39.649Z,29.15
2022-08-22T15:50:15.372Z,29.09
2022-08-22T15:53:10.252Z,29.05
2022-08-22T15:56:07.070Z,28.96
2022-08-22T15:58:48.708Z,28.87
2022-08-22T16:01:23.991Z,28.78
2022-08-22T16:03:58.871Z,28.69
2022-08-22T16:06:46.699Z,28.55
2022-08-22T16:09:42.679Z,28.38
2022-08-22T16:12:45.888Z,28.30
2022-08-22T16:15:52.829Z,28.14
2022-08-22T16:18:36.483Z,28.06
2022-08-22T16:21:10.575Z,28.03
2022-08-22T16:23:55.579Z,27.99
2022-08-22T16:26:30.644Z,27.95
2022-08-22T16:29:25.410Z,27.90
2022-08-22T16:32:02.205Z,27.79
2022-08-22T16:34:37.094Z,27.78
2022-08-22T16:37:09.073Z,27.78
2022-08-22T16:39:51.402Z,27.78
2022-08-22T16:42:26.304Z,27.80
2022-08-22T16:45:24.861Z,27.73
2022-08-22T16:47:58.527Z,27.69
2022-08-22T16:50:37.108Z,27.66
2022-08-22T16:53:37.503Z,27.66
2022-08-22T16:56:28.134Z,27.61
2022-08-22T16:59:38.486Z,27.57
2022-08-22T17:02:18.527Z,27.54
2022-08-22T17:05:30.044Z,27.50
2022-08-22T17:08:14.213Z,27.47
2022-08-22T17:10:56.615Z,27.39
2022-08-22T17:14:00.112Z,27.37
2022-08-22T17:16:43.716Z,27.32
2022-08-22T17:19:38.075Z,27.28
2022-08-22T17:22:32.664Z,27.28
2022-08-22T17:25:31.135Z,27.26
2022-08-22T17:28:08.659Z,27.23
2022-08-22T17:31:17.632Z,27.18
2022-08-22T17:34:14.305Z,27.17
2022-08-22T17:37:09.264Z,27.16
2022-08-22T17:40:10.228Z,27.10
2022-08-22T17:43:03.726Z,27.07
2022-08-22T17:46:03.307Z,27.05
2022-08-22T17:48:48.200Z,26.96
2022-08-22T17:51:44.396Z,26.86
2022-08-22T17:54:31.505Z,26.82
2022-08-22T17:57:08.164Z,26.76
2022-08-22T17:59:46.609Z,26.72
2022-08-22T18:02:33.588Z,26.65
2022-08-22T18:05:17.974Z,26.60
2022-08-22T18:07:57.865Z,26.55
2022-08-22T18:10:38.538Z,26.47
2022-08-22T18:13:15.439Z,26.44
2022-08-22T18:15:52.797Z,26.41
2022-08-22T18:18:31.836Z,26.33
2022-08-22T18:21:12.066Z,26.31
2022-08-22T18:23:45.686Z,26.23
2022-08-22T18:26:42.085Z,26.14
2022-08-22T18:29:21.011Z,26.06
2022-08-22T18:32:19.038Z,26.02
2022-08-22T18:35:05.955Z,25.99
2022-08-22T18:37:44.002Z,25.93
2022-08-22T18:40:37.051Z,25.88
2022-08-22T18:43:39.108Z,25.81
2022-08-22T18:46:47.325Z,25.74
2022-08-22T18:49:23.826Z,25.68
2022-08-22T18:52:15.319Z,25.66
2022-08-22T18:55:08.301Z,25.56
2022-08-22T18:58:07.811Z,25.49
2022-08-22T19:01:08.749Z,25.42
2022-08-22T19:04:05.530Z,25.34
2022-08-22T19:07:10.506Z,25.26
2022-08-22T19:09:45.030Z,25.18
2022-08-22T19:12:36.558Z,25.14
2022-08-22T19:15:14.034Z,25.07
2022-08-22T19:18:06.864Z,25.02
2022-08-22T19:20:58.925Z,24.95
2022-08-22T19:23:43.563Z,24.91
2022-08-22T19:26:43.381Z,24.89
2022-08-22T19:29:18.220Z,24.84
2022-08-22T19:31:56.629Z,24.82
2022-08-22T19:34:28.963Z,24.78
2022-08-22T19:37:32.496Z,24.77
2022-08-22T19:40:08.855Z,24.75
2022-08-22T19:42:44.076Z,24.75
2022-08-22T19:45:26.538Z,24.74
2022-08-22T19:48:05.463Z,24.73
2022-08-22T19:50:38.045Z,24.70
2022-08-22T19:53:24.635Z,24.69
2022-08-22T19:55:56.653Z,24.68
2022-08-22T19:58:32.587Z,24.68
2022-08-22T20:01:25.393Z,24.65
2022-08-22T20:04:06.010Z,24.64
2022-08-22T20:06:52.190Z,24.65
2022-08-22T20:09:57.828Z,24.62
2022-08-22T20:12:33.809Z,24.62
2022-08-22T20:15:19.126Z,24.63
2022-08-22T20:20:58.774Z,24.62
2022-08-22T20:23:32.174Z,24.61
2022-08-22T20:26:04.259Z,24.58
2022-08-22T20:28:48.831Z,24.57
2022-08-22T20:31:27.015Z,24.57
2022-08-22T20:34:04.971Z,24.57
2022-08-22T20:36:37.720Z,24.55
2022-08-22T20:39:16.334Z,24.51
2022-08-22T20:41:54.973Z,24.50
2022-08-22T20:44:33.441Z,24.50
2022-08-22T20:47:11.327Z,24.48
2022-08-22T20:49:46.481Z,24.47
2022-08-22T20:52:42.654Z,24.47
2022-08-22T20:55:27.277Z,24.45
2022-08-22T20:58:06.889Z,24.43
2022-08-22T21:00:44.458Z,24.43
2022-08-22T21:03:25.407Z,24.41
2022-08-22T21:06:22.639Z,24.39
2022-08-22T21:09:39.100Z,24.38
2022-08-22T21:12:11.315Z,24.36
2022-08-22T21:14:46.145Z,24.35
2022-08-22T21:17:34.395Z,24.34
2022-08-22T21:20:22.134Z,24.33
2022-08-22T21:22:55.437Z,24.30
2022-08-22T21:25:27.505Z,24.30
2022-08-22T21:28:00.829Z,24.30
2022-08-22T21:30:35.666Z,24.29
2022-08-22T21:33:07.470Z,24.29
2022-08-22T21:35:39.630Z,24.28
2022-08-22T21:38:16.449Z,24.27
2022-08-22T21:40:48.485Z,24.25
2022-08-22T21:43:37.588Z,24.24
2022-08-22T21:46:09.524Z,24.20
2022-08-22T21:48:44.128Z,24.16
2022-08-22T21:51:24.754Z,24.14
2022-08-22T21:54:21.461Z,24.12
2022-08-22T21:57:16.255Z,24.09
2022-08-22T21:59:59.060Z,24.05
2022-08-22T22:02:34.137Z,24.05
2022-08-22T22:05:14.997Z,24.02
2022-08-22T22:07:47.420Z,24.00
2022-08-22T22:10:20.993Z,23.98
2022-08-22T22:12:55.862Z,23.94
2022-08-22T22:15:31.848Z,23.91
2022-08-22T22:18:04.741Z,23.87
2022-08-22T22:20:37.095Z,23.87
2022-08-22T22:23:09.276Z,23.86
2022-08-22T22:25:42.508Z,23.85
2022-08-22T22:28:18.987Z,23.82
2022-08-22T22:30:53.309Z,23.84
2022-08-22T22:33:29.614Z,23.84
2022-08-22T22:36:13.150Z,23.83
2022-08-22T22:38:45.485Z,23.82
2022-08-22T22:41:19.184Z,23.81
2022-08-22T22:43:53.257Z,23.78
2022-08-22T22:46:27.072Z,23.75
2022-08-22T22:48:59.024Z,23.76
2022-08-22T22:51:31.126Z,23.73
2022-08-22T22:54:03.653Z,23.71
2022-08-22T22:56:36.554Z,23.67
2022-08-22T22:59:13.333Z,23.64
2022-08-22T23:02:16.533Z,23.60
2022-08-22T23:04:52.378Z,23.55
2022-08-22T23:07:27.038Z,23.52
2022-08-22T23:09:59.012Z,23.48
2022-08-22T23:12:34.596Z,23.44
2022-08-22T23:15:07.756Z,23.42
2022-08-22T23:17:40.990Z,23.37
2022-08-22T23:20:13.088Z,23.32
2022-08-22T23:22:45.877Z,23.27
2022-08-22T23:25:17.908Z,23.23
2022-08-22T23:27:52.475Z,23.20
2022-08-22T23:30:24.891Z,23.20
2022-08-22T23:32:56.955Z,23.15
2022-08-22T23:35:28.856Z,23.13
2022-08-22T23:38:01.003Z,23.13
2022-08-22T23:40:32.966Z,23.13
2022-08-22T23:43:05.054Z,23.12
2022-08-22T23:45:36.925Z,23.11
2022-08-22T23:48:08.882Z,23.07
2022-08-22T23:50:40.773Z,23.07
2022-08-22T23:53:12.879Z,23.04
2022-08-22T23:55:44.799Z,23.01
2022-08-22T23:58:17.096Z,23.01
